Time;durP1;ratioP1;P1;durP2;ratioP2;P2;SDS_P1;SDS_P2;PMS_P1;PMS_P2;Temp;Humidity;BMP_temperature;BMP_pressure;BME280_temperature;BME280_humidity;BME280_pressure;Samples;Min_cycle;Max_cycle;Signal;HPM_P1;HPM_P2
2022/06/06 00:02:20;;;;;;;19.65;12.38;;;;;;;;;;4907089;29;20044;-79
2022/06/06 00:04:46;;;;;;;17.75;12.63;;;;;;;;;;4908197;29;20425;-77
2022/06/06 00:07:12;;;;;;;16.85;12.63;;;;;;;;;;4912057;29;20048;-78
2022/06/06 00:09:38;;;;;;;16.67;13.55;;;;;;;;;;4900938;29;20048;-79
2022/06/06 00:12:05;;;;;;;15.38;12.48;;;;;;;;;;4910553;29;20055;-77
2022/06/06 00:14:31;;;;;;;17.73;12.23;;;;;;;;;;4925147;29;20504;-78
2022/06/06 00:16:57;;;;;;;13.85;12.43;;;;;;;;;;4914568;29;20060;-79
2022/06/06 00:19:24;;;;;;;14.80;12.82;;;;;;;;;;4914853;29;20048;-80
2022/06/06 00:21:50;;;;;;;14.93;12.00;;;;;;;;;;4911378;29;20049;-78
2022/06/06 00:24:16;;;;;;;14.93;12.82;;;;;;;;;;4909321;29;20038;-79
2022/06/06 00:26:42;;;;;;;17.52;12.68;;;;;;;;;;4912064;29;20123;-78
2022/06/06 00:29:09;;;;;;;15.25;12.65;;;;;;;;;;4923569;29;20048;-77
2022/06/06 00:37:07;;;;;;;14.55;13.02;;;;;;;;;;4906218;29;20083;-77
2022/06/06 00:39:33;;;;;;;15.20;12.88;;;;;;;;;;4914891;29;20086;-77
2022/06/06 00:41:59;;;;;;;15.20;13.07;;;;;;;;;;4919797;29;20048;-78
2022/06/06 00:44:29;;;;;;;15.73;13.10;;;;;;;;;;4896807;29;20139;-79
2022/06/06 00:46:57;;;;;;;17.48;12.38;;;;;;;;;;4899472;29;20071;-80
2022/06/06 00:49:41;;;;;;;17.02;13.18;;;;;;;;;;4916271;29;20591;-78
2022/06/06 00:52:15;;;;;;;16.98;14.57;;;;;;;;;;4904295;29;20088;-81
2022/06/06 00:54:42;;;;;;;18.52;14.57;;;;;;;;;;4914371;29;20135;-81
2022/06/06 00:57:12;;;;;;;17.95;15.05;;;;;;;;;;4907848;29;20060;-79
2022/06/06 00:59:39;;;;;;;17.75;14.75;;;;;;;;;;4907783;29;20091;-80
2022/06/06 01:02:07;;;;;;;21.00;15.60;;;;;;;;;;4917511;29;20044;-79
2022/06/06 01:04:33;;;;;;;19.30;16.33;;;;;;;;;;4912092;29;20048;-83
2022/06/06 01:06:59;;;;;;;17.85;15.45;;;;;;;;;;4879902;29;20044;-82
2022/06/06 01:09:26;;;;;;;23.00;16.52;;;;;;;;;;4890275;29;20054;-87
2022/06/06 01:11:59;;;;;;;25.98;17.40;;;;;;;;;;4916835;29;20031;-83
2022/06/06 01:14:28;;;;;;;26.20;17.98;;;;;;;;;;4892199;29;20143;-80
2022/06/06 01:16:57;;;;;;;24.83;17.80;;;;;;;;;;4911008;29;20494;-80
2022/06/06 01:19:41;;;;;;;22.52;19.50;;;;;;;;;;4893581;29;20804;-83
2022/06/06 01:22:19;;;;;;;22.05;17.80;;;;;;;;;;4923708;29;20051;-83
2022/06/06 01:24:48;;;;;;;23.17;19.60;;;;;;;;;;4914027;29;20113;-85
2022/06/06 01:27:25;;;;;;;22.35;18.95;;;;;;;;;;4913851;29;20045;-85
2022/06/06 01:29:54;;;;;;;21.10;18.90;;;;;;;;;;4914332;29;20056;-85
2022/06/06 01:32:23;;;;;;;21.83;18.33;;;;;;;;;;4910826;29;20130;-82
2022/06/06 01:34:50;;;;;;;26.52;20.10;;;;;;;;;;4893806;29;20063;-85
2022/06/06 01:37:31;;;;;;;26.55;20.83;;;;;;;;;;4900185;29;20083;-86
2022/06/06 01:39:58;;;;;;;26.77;21.05;;;;;;;;;;4910105;29;20083;-82
2022/06/06 01:42:31;;;;;;;24.27;19.67;;;;;;;;;;4908826;29;20123;-85
2022/06/06 01:45:04;;;;;;;26.13;21.70;;;;;;;;;;4897973;29;20035;-84
2022/06/06 01:47:32;;;;;;;28.60;21.70;;;;;;;;;;4910231;29;20044;-86
2022/06/06 01:49:59;;;;;;;33.95;22.58;;;;;;;;;;4914183;29;20040;-81
2022/06/06 01:52:25;;;;;;;25.83;20.13;;;;;;;;;;4892888;29;20044;-80
2022/06/06 01:54:56;;;;;;;30.40;21.45;;;;;;;;;;4905137;29;20055;-81
2022/06/06 01:57:23;;;;;;;41.03;25.88;;;;;;;;;;4910185;29;20044;-79
2022/06/06 01:59:50;;;;;;;30.60;21.52;;;;;;;;;;4910760;29;20040;-89
2022/06/06 02:02:16;;;;;;;28.58;20.35;;;;;;;;;;4892305;29;20111;-85
2022/06/06 02:04:42;;;;;;;32.15;21.42;;;;;;;;;;4898112;29;20039;-87
2022/06/06 02:07:08;;;;;;;42.95;24.08;;;;;;;;;;4900275;29;20062;-87
2022/06/06 02:09:34;;;;;;;33.60;21.55;;;;;;;;;;4901961;29;20138;-79
2022/06/06 02:12:00;;;;;;;40.17;22.95;;;;;;;;;;4910229;29;20037;-81
2022/06/06 02:14:27;;;;;;;38.05;22.85;;;;;;;;;;4914348;29;20044;-87
2022/06/06 02:16:54;;;;;;;27.90;18.77;;;;;;;;;;4913210;29;20051;-85
2022/06/06 02:19:20;;;;;;;31.45;19.13;;;;;;;;;;4925005;29;20103;-82
2022/06/06 02:21:46;;;;;;;32.75;18.50;;;;;;;;;;4907278;29;20486;-84
2022/06/06 02:24:12;;;;;;;34.25;20.45;;;;;;;;;;4927018;29;20456;-85
2022/06/06 02:26:39;;;;;;;37.55;19.55;;;;;;;;;;4925760;29;20089;-86
2022/06/06 02:29:05;;;;;;;29.63;16.13;;;;;;;;;;4906968;29;20047;-85
2022/06/06 02:31:37;;;;;;;29.15;16.75;;;;;;;;;;4917683;29;20051;-85
2022/06/06 02:34:07;;;;;;;29.55;15.25;;;;;;;;;;4912516;29;20426;-85
2022/06/06 02:36:34;;;;;;;26.77;15.05;;;;;;;;;;4907914;29;20095;-82
2022/06/06 02:39:00;;;;;;;29.45;16.30;;;;;;;;;;4914825;29;20419;-85
2022/06/06 02:41:28;;;;;;;24.08;13.95;;;;;;;;;;4911544;29;20174;-83
2022/06/06 02:43:56;;;;;;;24.58;13.63;;;;;;;;;;4894003;29;20134;-83
2022/06/06 02:46:22;;;;;;;21.48;14.60;;;;;;;;;;4914344;29;20139;-79
2022/06/06 02:48:48;;;;;;;27.42;16.35;;;;;;;;;;4910156;29;20044;-85
2022/06/06 02:51:14;;;;;;;22.98;13.68;;;;;;;;;;4907444;29;20103;-85
2022/06/06 02:53:41;;;;;;;29.23;12.00;;;;;;;;;;4900424;29;20093;-86
2022/06/06 02:56:07;;;;;;;23.52;13.90;;;;;;;;;;4904920;29;20043;-83
2022/06/06 02:58:33;;;;;;;25.42;13.48;;;;;;;;;;4900648;29;20055;-85
2022/06/06 03:01:01;;;;;;;26.20;14.20;;;;;;;;;;4914130;29;20043;-86
2022/06/06 03:03:28;;;;;;;22.35;13.02;;;;;;;;;;4897864;29;20047;-83
2022/06/06 03:05:57;;;;;;;28.80;13.65;;;;;;;;;;4909155;29;20036;-86
2022/06/06 03:08:39;;;;;;;24.10;12.23;;;;;;;;;;4907207;29;20039;-86
2022/06/06 03:11:24;;;;;;;28.35;13.68;;;;;;;;;;4909115;29;20028;-84
2022/06/06 03:14:08;;;;;;;20.10;12.70;;;;;;;;;;4913540;29;20124;-84
2022/06/06 03:22:42;;;;;;;24.65;11.45;;;;;;;;;;4907095;29;20485;-83
2022/06/06 03:25:08;;;;;;;19.35;10.60;;;;;;;;;;4917487;29;20047;-84
2022/06/06 03:27:53;;;;;;;20.67;10.27;;;;;;;;;;4911611;29;20070;-87
2022/06/06 03:30:28;;;;;;;11.85;7.50;;;;;;;;;;4909990;29;20047;-86
2022/06/06 03:33:06;;;;;;;14.65;8.80;;;;;;;;;;4895861;29;20059;-86
2022/06/06 03:35:41;;;;;;;19.50;9.40;;;;;;;;;;4917106;29;20056;-88
2022/06/06 03:38:26;;;;;;;17.30;10.23;;;;;;;;;;4918719;29;20075;-87
2022/06/06 03:40:55;;;;;;;14.93;10.40;;;;;;;;;;4913277;29;20100;-86
2022/06/06 03:43:24;;;;;;;20.48;12.88;;;;;;;;;;4893529;29;20079;-88
2022/06/06 03:45:59;;;;;;;18.27;11.90;;;;;;;;;;4916239;29;20819;-87
2022/06/06 03:48:41;;;;;;;18.90;12.50;;;;;;;;;;4891998;29;20626;-86
2022/06/06 03:51:27;;;;;;;18.50;12.20;;;;;;;;;;4896752;29;20472;-79
2022/06/06 03:54:01;;;;;;;18.83;12.13;;;;;;;;;;4914553;29;20143;-84
2022/06/06 03:56:39;;;;;;;19.50;11.68;;;;;;;;;;4919379;29;20447;-86
2022/06/06 03:59:07;;;;;;;13.65;11.32;;;;;;;;;;4898152;29;20376;-84
2022/06/06 04:01:34;;;;;;;18.80;10.68;;;;;;;;;;4891456;29;20092;-82
2022/06/06 04:04:01;;;;;;;10.00;7.10;;;;;;;;;;4895971;29;20048;-82
2022/06/06 04:06:28;;;;;;;14.13;10.50;;;;;;;;;;4916504;29;20044;-85
2022/06/06 04:08:54;;;;;;;14.35;10.55;;;;;;;;;;4915685;29;20054;-82
2022/06/06 04:11:28;;;;;;;17.58;10.30;;;;;;;;;;4908146;29;20048;-84
2022/06/06 04:14:32;;;;;;;12.73;8.98;;;;;;;;;;4903153;29;20763;-87
2022/06/06 04:16:58;;;;;;;15.52;10.73;;;;;;;;;;4846696;29;20101;-85
2022/06/06 04:19:36;;;;;;;16.88;10.10;;;;;;;;;;4847146;29;20164;-82
2022/06/06 04:22:05;;;;;;;19.60;11.35;;;;;;;;;;4893063;29;20142;-87
2022/06/06 04:24:39;;;;;;;14.43;10.50;;;;;;;;;;4916138;29;20170;-87
2022/06/06 04:27:05;;;;;;;14.63;11.90;;;;;;;;;;4911872;29;20514;-83
2022/06/06 04:29:50;;;;;;;15.88;10.77;;;;;;;;;;4908861;29;20060;-87
2022/06/06 04:32:35;;;;;;;13.73;10.05;;;;;;;;;;4922290;29;20338;-82
2022/06/06 04:35:10;;;;;;;11.85;9.23;;;;;;;;;;4926935;29;20056;-82
2022/06/06 04:37:40;;;;;;;13.32;10.38;;;;;;;;;;4917943;29;20051;-86
2022/06/06 04:40:15;;;;;;;11.88;9.38;;;;;;;;;;4928927;29;20036;-80
2022/06/06 04:42:41;;;;;;;11.73;8.75;;;;;;;;;;4915420;29;20130;-83
2022/06/06 04:45:15;;;;;;;14.27;9.75;;;;;;;;;;4886631;29;20099;-80
2022/06/06 04:47:40;;;;;;;;;;;;;;;;;;4912791;29;20187;-80
2022/06/06 04:50:11;;;;;;;13.10;9.15;;;;;;;;;;4916689;29;19958;-87
2022/06/06 04:52:39;;;;;;;12.73;8.63;;;;;;;;;;4919278;29;20528;-85
2022/06/06 04:55:08;;;;;;;11.80;9.35;;;;;;;;;;4911383;29;20127;-85
2022/06/06 04:57:36;;;;;;;13.85;10.23;;;;;;;;;;4880536;29;20521;-85
2022/06/06 05:00:04;;;;;;;13.88;9.35;;;;;;;;;;4895909;29;20040;-82
2022/06/06 05:02:31;;;;;;;14.57;9.77;;;;;;;;;;4910333;29;20056;-85
2022/06/06 05:04:57;;;;;;;13.65;10.80;;;;;;;;;;4895278;29;20095;-86
2022/06/06 05:07:39;;;;;;;14.77;10.85;;;;;;;;;;4914686;29;20397;-83
2022/06/06 05:10:24;;;;;;;13.85;10.00;;;;;;;;;;4902689;29;20059;-86
2022/06/06 05:13:12;;;;;;;12.13;8.50;;;;;;;;;;4915467;29;20044;-85
2022/06/06 05:15:38;;;;;;;11.90;8.25;;;;;;;;;;4932267;29;20051;-85
2022/06/06 05:18:08;;;;;;;8.85;7.95;;;;;;;;;;4917540;29;20048;-81
2022/06/06 05:20:52;;;;;;;13.35;9.07;;;;;;;;;;4916323;29;20221;-88
2022/06/06 05:23:25;;;;;;;12.25;10.13;;;;;;;;;;4906283;29;20048;-87
2022/06/06 05:25:57;;;;;;;14.30;9.37;;;;;;;;;;4919669;29;20078;-87
2022/06/06 05:28:32;;;;;;;12.18;8.80;;;;;;;;;;4916537;29;20048;-85
2022/06/06 05:31:08;;;;;;;10.85;8.52;;;;;;;;;;4911066;29;20060;-88
2022/06/06 05:33:38;;;;;;;10.70;8.25;;;;;;;;;;4897008;29;20044;-87
2022/06/06 05:36:10;;;;;;;9.57;6.70;;;;;;;;;;4917093;29;20067;-90
2022/06/06 05:38:39;;;;;;;4.38;3.97;;;;;;;;;;4902635;29;20054;-86
2022/06/06 05:41:20;;;;;;;4.95;3.67;;;;;;;;;;4901134;29;20067;-86
2022/06/06 05:43:51;;;;;;;3.72;3.42;;;;;;;;;;4916315;29;20035;-87
2022/06/06 05:46:37;;;;;;;5.32;4.50;;;;;;;;;;4898792;29;20047;-88
2022/06/06 05:49:22;;;;;;;4.68;3.80;;;;;;;;;;4881285;29;20040;-87
2022/06/06 05:52:00;;;;;;;7.22;4.93;;;;;;;;;;4912815;29;20043;-86
2022/06/06 05:54:26;;;;;;;5.82;5.28;;;;;;;;;;4918850;29;20043;-88
2022/06/06 05:57:04;;;;;;;8.32;5.28;;;;;;;;;;4923568;29;20043;-84
2022/06/06 05:59:48;;;;;;;7.03;4.90;;;;;;;;;;4919237;29;20051;-83
2022/06/06 06:02:35;;;;;;;8.35;5.38;;;;;;;;;;4918713;29;20124;-84
2022/06/06 06:05:03;;;;;;;5.57;3.95;;;;;;;;;;4913028;29;20054;-80
2022/06/06 06:07:33;;;;;;;7.13;5.20;;;;;;;;;;4915108;29;20103;-89
2022/06/06 06:10:02;;;;;;;8.25;4.85;;;;;;;;;;4914414;29;20444;-84
2022/06/06 06:12:39;;;;;;;5.18;4.13;;;;;;;;;;4895924;29;20056;-82
2022/06/06 06:15:26;;;;;;;8.35;5.03;;;;;;;;;;4910742;29;20059;-86
2022/06/06 06:17:53;;;;;;;7.40;5.10;;;;;;;;;;4915016;29;20076;-85
2022/06/06 06:20:21;;;;;;;9.95;5.63;;;;;;;;;;4910670;29;20418;-85
2022/06/06 06:22:51;;;;;;;11.35;6.72;;;;;;;;;;4911472;29;20084;-84
2022/06/06 06:25:19;;;;;;;11.27;7.57;;;;;;;;;;4912805;29;20048;-82
2022/06/06 06:27:45;;;;;;;14.13;8.30;;;;;;;;;;4912913;29;20170;-85
2022/06/06 06:30:12;;;;;;;10.82;7.40;;;;;;;;;;4915008;29;20051;-84
2022/06/06 06:33:11;;;;;;;12.82;8.60;;;;;;;;;;4916546;29;20044;-84
2022/06/06 06:35:46;;;;;;;11.38;6.78;;;;;;;;;;4896247;29;20059;-82
2022/06/06 06:38:30;;;;;;;6.63;4.82;;;;;;;;;;4909711;29;20168;-83
2022/06/06 06:40:56;;;;;;;;;;;;;;;;;;4906264;29;20115;-84
2022/06/06 06:43:37;;;;;;;9.57;6.32;;;;;;;;;;4913523;29;19978;-85
2022/06/06 06:46:07;;;;;;;9.65;6.72;;;;;;;;;;4907231;29;20141;-84
2022/06/06 06:48:38;;;;;;;8.55;4.65;;;;;;;;;;4909288;29;20707;-84
2022/06/06 06:51:04;;;;;;;6.88;5.78;;;;;;;;;;4910975;29;20509;-83
2022/06/06 06:53:49;;;;;;;9.23;5.60;;;;;;;;;;4915282;29;20048;-83
2022/06/06 06:56:18;;;;;;;7.57;5.50;;;;;;;;;;4911698;29;20552;-85
2022/06/06 06:58:51;;;;;;;10.10;7.15;;;;;;;;;;4909817;29;20138;-86
2022/06/06 07:01:38;;;;;;;14.18;8.68;;;;;;;;;;4894295;29;20155;-87
2022/06/06 07:10:25;;;;;;;16.25;8.57;;;;;;;;;;4912475;29;20043;-85
2022/06/06 07:12:54;;;;;;;12.35;6.80;;;;;;;;;;4890323;29;20405;-85
2022/06/06 07:15:20;;;;;;;13.80;5.80;;;;;;;;;;4884529;29;20103;-85
2022/06/06 07:17:49;;;;;;;7.75;5.57;;;;;;;;;;4914583;29;20057;-86
2022/06/06 07:20:16;;;;;;;6.22;5.28;;;;;;;;;;4875712;29;20143;-83
2022/06/06 07:23:02;;;;;;;6.03;4.72;;;;;;;;;;4912784;29;20518;-83
2022/06/06 07:25:28;;;;;;;9.50;3.90;;;;;;;;;;4914232;29;20040;-84
2022/06/06 07:27:54;;;;;;;4.72;3.38;;;;;;;;;;4887853;29;20044;-82
2022/06/06 07:30:21;;;;;;;4.38;3.45;;;;;;;;;;4885042;29;20047;-82
2022/06/06 07:33:06;;;;;;;3.42;3.10;;;;;;;;;;4911442;29;20106;-81
2022/06/06 07:35:39;;;;;;;4.40;3.38;;;;;;;;;;4889406;29;20503;-83
2022/06/06 07:38:12;;;;;;;3.55;3.25;;;;;;;;;;4893469;29;20401;-85
2022/06/06 07:41:17;;;;;;;6.97;3.90;;;;;;;;;;4915292;29;20043;-83
2022/06/06 07:43:43;;;;;;;8.32;4.45;;;;;;;;;;4885972;29;20055;-83
2022/06/06 07:46:25;;;;;;;4.22;3.20;;;;;;;;;;4885112;29;20090;-82
2022/06/06 07:48:55;;;;;;;7.03;3.55;;;;;;;;;;4889033;29;20044;-82
2022/06/06 07:51:28;;;;;;;7.47;4.13;;;;;;;;;;4869403;29;20044;-82
2022/06/06 07:54:14;;;;;;;4.55;3.88;;;;;;;;;;4902212;29;20492;-81
2022/06/06 07:56:42;;;;;;;7.72;3.83;;;;;;;;;;4911207;29;20124;-82
2022/06/06 08:02:36;;;;;;;4.80;2.92;;;;;;;;;;4926311;29;20048;-82
2022/06/06 08:05:33;;;;;;;3.80;2.15;;;;;;;;;;4914706;29;20060;-82
2022/06/06 08:08:18;;;;;;;5.03;2.40;;;;;;;;;;4910509;29;20072;-83
2022/06/06 08:10:53;;;;;;;4.50;2.10;;;;;;;;;;4892681;29;20059;-83
2022/06/06 08:13:37;;;;;;;4.20;2.42;;;;;;;;;;4894424;29;20191;-83
2022/06/06 08:16:30;;;;;;;4.68;2.78;;;;;;;;;;4907960;29;20127;-83
2022/06/06 08:19:22;;;;;;;5.60;2.88;;;;;;;;;;4914818;29;20066;-83
2022/06/06 08:22:11;;;;;;;4.97;2.95;;;;;;;;;;4913329;29;20044;-82
2022/06/06 08:25:02;;;;;;;3.60;2.10;;;;;;;;;;4919452;29;20054;-82
2022/06/06 08:27:28;;;;;;;4.28;2.22;;;;;;;;;;4889791;29;20072;-82
2022/06/06 08:29:55;;;;;;;5.38;2.03;;;;;;;;;;4910138;29;20067;-82
2022/06/06 08:32:21;;;;;;;2.47;2.05;;;;;;;;;;4910561;29;20599;-82
2022/06/06 08:34:48;;;;;;;4.20;2.42;;;;;;;;;;4889428;29;20060;-83
2022/06/06 08:41:02;;;;;;;;;;;;;;;;;;;;;
2022/06/06 08:43:38;;;;;;;5.78;3.05;;;;;;;;;;4952852;28;20467;-81
2022/06/06 08:46:10;;;;;;;3.83;2.80;;;;;;;;;;4966513;28;20053;-85
2022/06/06 08:48:39;;;;;;;3.53;2.95;;;;;;;;;;4954654;28;20055;-82
2022/06/06 08:51:27;;;;;;;5.97;3.90;;;;;;;;;;4966053;28;20082;-83
2022/06/06 08:54:13;;;;;;;8.40;3.75;;;;;;;;;;4967645;28;20050;-86
2022/06/06 08:56:42;;;;;;;10.80;3.40;;;;;;;;;;4923539;28;20058;-86
2022/06/06 08:59:31;;;;;;;5.72;3.50;;;;;;;;;;4954301;28;20054;-83
2022/06/06 09:02:09;;;;;;;9.70;3.40;;;;;;;;;;4945280;28;20553;-84
2022/06/06 09:04:54;;;;;;;5.53;3.17;;;;;;;;;;4969312;28;20089;-83
2022/06/06 09:07:26;;;;;;;6.25;4.07;;;;;;;;;;4940870;28;20047;-83
2022/06/06 09:10:08;;;;;;;5.97;3.65;;;;;;;;;;4943756;28;20045;-85
2022/06/06 09:12:53;;;;;;;9.00;4.18;;;;;;;;;;4960317;28;20137;-84
2022/06/06 09:15:50;;;;;;;6.03;3.47;;;;;;;;;;4938761;28;20152;-81
2022/06/06 09:18:35;;;;;;;5.03;3.63;;;;;;;;;;4930621;28;20113;-84
2022/06/06 09:21:16;;;;;;;6.53;4.20;;;;;;;;;;4957884;28;20472;-82
2022/06/06 09:24:02;;;;;;;7.07;3.08;;;;;;;;;;4955794;28;20098;-82
2022/06/06 09:26:31;;;;;;;3.55;2.72;;;;;;;;;;4936734;28;20054;-79
2022/06/06 09:29:04;;;;;;;4.10;3.17;;;;;;;;;;4934563;28;20050;-82
2022/06/06 09:31:49;;;;;;;4.72;3.38;;;;;;;;;;4951518;28;20129;-81
2022/06/06 09:34:15;;;;;;;5.88;3.08;;;;;;;;;;4935215;28;20039;-81
2022/06/06 09:36:46;;;;;;;6.60;2.80;;;;;;;;;;4969953;28;20108;-82
2022/06/06 09:39:30;;;;;;;11.63;3.58;;;;;;;;;;4975072;28;20514;-82
2022/06/06 09:41:56;;;;;;;;;;;;;;;;;;4963316;28;20058;-82
2022/06/06 09:44:41;;;;;;;7.07;3.30;;;;;;;;;;4970076;28;19929;-82
2022/06/06 09:47:21;;;;;;;8.65;3.10;;;;;;;;;;4970537;28;20538;-83
2022/06/06 09:50:14;;;;;;;7.55;2.92;;;;;;;;;;4922167;28;20027;-82
2022/06/06 09:53:00;;;;;;;4.13;2.70;;;;;;;;;;4964902;28;20054;-84
2022/06/06 09:59:26;;;;;;;5.70;2.67;;;;;;;;;;4908427;29;20044;-83
2022/06/06 10:01:53;;;;;;;10.88;3.33;;;;;;;;;;4969446;28;20109;-85
2022/06/06 10:04:33;;;;;;;6.90;3.33;;;;;;;;;;4947519;28;20046;-83
2022/06/06 10:07:21;;;;;;;5.65;2.97;;;;;;;;;;4958988;28;20109;-83
2022/06/06 10:09:53;;;;;;;8.02;3.30;;;;;;;;;;4961628;28;20067;-86
2022/06/06 10:12:38;;;;;;;6.20;2.80;;;;;;;;;;4956844;28;20510;-84
2022/06/06 10:15:23;;;;;;;12.73;3.95;;;;;;;;;;4956700;28;20054;-85
2022/06/06 10:17:49;;;;;;;12.55;4.18;;;;;;;;;;4961080;28;20031;-88
2022/06/06 10:20:48;;;;;;;10.30;3.15;;;;;;;;;;4943643;28;20039;-83
2022/06/06 10:23:19;;;;;;;8.02;4.43;;;;;;;;;;4879423;29;20525;-86
2022/06/06 10:25:51;;;;;;;4.20;2.47;;;;;;;;;;4895202;28;20110;-84
2022/06/06 10:28:21;;;;;;;7.32;2.50;;;;;;;;;;4960712;28;20038;-84
2022/06/06 10:30:49;;;;;;;6.07;2.50;;;;;;;;;;4942428;28;20491;-83
2022/06/06 10:33:53;;;;;;;5.72;2.08;;;;;;;;;;4960357;28;20042;-83
2022/06/06 10:36:25;;;;;;;5.55;1.90;;;;;;;;;;4878853;29;20056;-83
2022/06/06 10:39:01;;;;;;;5.13;2.00;;;;;;;;;;4882254;29;20048;-82
2022/06/06 10:41:42;;;;;;;4.90;2.22;;;;;;;;;;4891806;29;20146;-85
2022/06/06 10:44:12;;;;;;;7.57;1.40;;;;;;;;;;4930856;29;20447;-87
2022/06/06 10:47:09;;;;;;;6.65;1.80;;;;;;;;;;4930251;29;20044;-84
2022/06/06 10:49:38;;;;;;;6.78;2.00;;;;;;;;;;4905851;28;20075;-83
2022/06/06 10:52:22;;;;;;;5.57;2.40;;;;;;;;;;4956129;28;20046;-84
2022/06/06 10:55:06;;;;;;;8.27;1.60;;;;;;;;;;4947877;29;20051;-84
2022/06/06 10:57:52;;;;;;;2.50;1.70;;;;;;;;;;4933051;29;20050;-84
2022/06/06 11:00:40;;;;;;;6.00;1.58;;;;;;;;;;4940476;28;20078;-84
2022/06/06 11:03:12;;;;;;;5.60;2.08;;;;;;;;;;4917572;29;20043;-83
2022/06/06 11:05:57;;;;;;;2.67;1.60;;;;;;;;;;4926755;29;20099;-84
2022/06/06 11:09:03;;;;;;;2.83;1.30;;;18.10;99.90;;;;;;4919721;29;20140;-85
2022/06/06 11:11:41;;;;;;;8.75;1.20;;;;;;;;;;4928586;29;20424;-84
2022/06/06 11:14:13;;;;;;;4.90;1.38;;;;;;;;;;4928125;29;20059;-84
2022/06/06 11:16:45;;;;;;;4.57;1.40;;;;;;;;;;4941555;28;20492;-85
2022/06/06 11:19:56;;;;;;;4.20;1.50;;;;;;;;;;4946755;28;20051;-84
2022/06/06 11:22:32;;;;;;;4.55;1.65;;;;;;;;;;4940122;28;20058;-84
2022/06/06 11:25:06;;;;;;;5.03;1.90;;;;;;;;;;4923146;29;20074;-84
2022/06/06 11:27:32;;;;;;;;;;;;;;;;;;4930700;29;20040;-85
2022/06/06 11:29:58;;;;;;;4.05;1.40;;;;;;;;;;4944486;28;19955;-84
2022/06/06 11:32:43;;;;;;;4.80;1.60;;;;;;;;;;4928841;29;20142;-83
2022/06/06 11:35:24;;;;;;;2.58;1.40;;;;;;;;;;4926301;29;20047;-86
2022/06/06 11:37:56;;;;;;;4.13;1.30;;;;;;;;;;4928352;29;20531;-85
2022/06/06 11:40:25;;;;;;;4.30;1.55;;;;;;;;;;4960920;28;20522;-83
2022/06/06 11:43:12;;;;;;;4.57;1.90;;;;;;;;;;4964745;28;20051;-83
2022/06/06 11:45:50;;;;;;;4.80;1.60;;;;;;;;;;4962467;28;20141;-85
2022/06/06 11:48:37;;;;;;;3.58;1.58;;;;;;;;;;4965924;28;20130;-84
2022/06/06 11:51:21;;;;;;;6.53;2.10;;;;;;;;;;4944975;28;20590;-81
2022/06/06 11:54:06;;;;;;;3.50;1.50;;;;;;;;;;4964274;28;20058;-84
2022/06/06 11:57:15;;;;;;;2.00;1.35;;;;;;;;;;4955748;28;20046;-82
2022/06/06 11:59:40;;;;;;;3.00;1.48;;;;;;;;;;4960703;28;20050;-81
2022/06/06 12:02:25;;;;;;;5.88;1.50;;;;;;;;;;4968629;28;20069;-82
2022/06/06 12:05:20;;;;;;;4.22;1.58;;;;;;;;;;4949532;28;20558;-83
2022/06/06 12:08:00;;;;;;;2.63;1.20;;;;;;;;;;4965147;28;20133;-86
2022/06/06 12:10:27;;;;;;;3.40;1.30;;;;;;;;;;4952738;28;20085;-84
2022/06/06 12:13:02;;;;;;;2.53;1.25;;;;;;;;;;4970236;28;20195;-83
2022/06/06 12:15:47;;;;;;;3.65;1.27;;;;;;;;;;4969028;28;20046;-84
2022/06/06 12:18:13;;;;;;;4.03;1.05;;;;;;;;;;4968593;28;20181;-84
2022/06/06 12:20:56;;;;;;;5.10;1.45;;;;;;;;;;4950548;28;20487;-84
2022/06/06 12:23:36;;;;;;;4.30;1.60;;;;;;;;;;4965764;28;20043;-85
2022/06/06 12:26:03;;;;;;;2.30;1.33;;;;;;;;;;4941153;28;20097;-85
2022/06/06 12:29:09;;;;;;;2.65;1.30;;;;;;;;;;4963131;28;20047;-84
2022/06/06 12:31:54;;;;;;;4.00;1.27;;;;;;;;;;4885400;29;20112;-86
2022/06/06 12:34:22;;;;;;;2.20;1.10;;;;;;;;;;4897812;29;20130;-85
2022/06/06 12:36:52;;;;;;;4.53;1.27;;;;;;;;;;4908545;28;20069;-85
2022/06/06 12:39:37;;;;;;;4.90;1.52;;;;;;;;;;4961889;28;20117;-85
2022/06/06 12:42:12;;;;;;;3.17;1.10;;;;;;;;;;4958758;28;20055;-85
2022/06/06 12:44:44;;;;;;;2.95;1.13;;;;;;;;;;4964929;28;20097;-86
2022/06/06 12:47:13;;;;;;;2.08;1.20;;;;;;;;;;4961070;28;20045;-86
2022/06/06 12:49:49;;;;;;;6.07;2.10;;;;;;;;;;4959657;28;20047;-87
2022/06/06 12:52:22;;;;;;;3.90;1.27;;;;;;;;;;4942683;28;20100;-85
2022/06/06 12:57:36;;;;;;;;;;;;;;;;;;4965073;28;20557;-85
2022/06/06 13:00:05;;;;;;;2.17;1.40;;;;;;;;;;4963403;28;19927;-85
2022/06/06 13:02:34;;;;;;;3.40;1.38;;;;;;;;;;4966529;28;20050;-83
2022/06/06 13:05:02;;;;;;;6.30;1.77;;;;;;;;;;4960000;28;20050;-87
2022/06/06 13:07:48;;;;;;;4.25;1.55;;;;;;;;;;4960509;28;20053;-85
2022/06/06 13:10:14;;;;;;;2.67;1.52;;;;;;;;;;4946464;28;20117;-87
2022/06/06 13:12:55;;;;;;;4.07;1.10;;;;;;;;;;4960798;28;20035;-85
2022/06/06 13:15:38;;;;;;;2.80;1.60;;;;;;;;;;4946072;28;20118;-86
2022/06/06 13:18:23;;;;;;;5.53;1.30;;;;;;;;;;4960928;28;20779;-85
2022/06/06 13:20:49;;;;;;;3.90;1.13;;;;;;;;;;4945064;28;20496;-86
2022/06/06 13:23:15;;;;;;;2.72;1.50;;;;;;;;;;4945332;28;20162;-86
2022/06/06 13:25:47;;;;;;;3.28;1.50;;;;;;;;;;4965292;28;20239;-87
2022/06/06 13:28:39;;;;;;;7.00;1.70;;;;;;;;;;4963306;28;20078;-86
2022/06/06 13:34:09;;;;;;;5.20;1.70;;;;;;;;;;4941976;23;20056;-84
2022/06/06 13:36:41;;;;;;;4.33;2.00;;;;;;;;;;4936645;29;20104;-86
2022/06/06 13:39:25;;;;;;;4.32;2.03;;;;;;;;;;4929876;28;20052;-85
2022/06/06 13:42:00;;;;;;;6.47;2.05;;;;;;;;;;4933277;29;20055;-84
2022/06/06 13:45:01;;;;;;;3.60;1.98;;;;;;;;;;4934002;29;20102;-82
2022/06/06 13:47:38;;;;;;;7.80;2.40;;;;;;;;;;4946572;29;20044;-83
2022/06/06 13:50:17;;;;;;;4.05;2.50;;;;;;;;;;4923966;29;20044;-87
2022/06/06 13:53:02;;;;;;;3.38;1.83;;;;;;;;;;4924815;29;20547;-86
2022/06/06 13:55:28;;;;;;;4.85;2.63;;;;;;;;;;4928834;29;20512;-85
2022/06/06 13:58:13;;;;;;;2.85;1.90;;;;;;;;;;4913624;29;20136;-86
2022/06/06 14:00:51;;;;;;;4.40;2.70;;;;;;;;;;4932635;29;20043;-85
2022/06/06 14:03:32;;;;;;;4.93;2.70;;;;;;;;;;4932163;29;20094;-86
2022/06/06 14:06:06;;;;;;;4.93;3.70;;;;;;;;;;4929620;29;20054;-89
2022/06/06 14:08:52;;;;;;;8.55;4.30;;;;;;;;;;4914639;29;20043;-85
2022/06/06 14:11:46;;;;;;;9.95;4.10;;;15.30;99.90;;;;;;4931112;29;20478;-86
2022/06/06 14:14:14;;;;;;;6.20;4.70;;;;;;;;;;4930764;29;20088;-84
2022/06/06 14:16:41;;;;;;;11.70;6.05;;;;;;;;;;4913738;29;20048;-86
2022/06/06 14:19:15;;;;;;;5.15;4.20;;;;;;;;;;4929043;29;20134;-84
2022/06/06 14:21:48;;;;;;;8.07;6.47;;;;;;;;;;4931299;29;20059;-85
2022/06/06 14:24:16;;;;;;;13.85;7.85;;;;;;;;;;4928472;29;20046;-86
2022/06/06 14:26:49;;;;;;;8.60;6.18;;;;;;;;;;4930449;29;20066;-85
2022/06/06 14:29:25;;;;;;;8.13;5.75;;;;;;;;;;4921742;29;20051;-85
2022/06/06 14:31:56;;;;;;;8.88;6.70;;;;;;;;;;4912461;29;20140;-84
2022/06/06 14:34:34;;;;;;;7.18;5.78;;;;;;;;;;4894319;29;20138;-83
2022/06/06 14:37:04;;;;;;;4.57;4.18;;;;;;;;;;4910236;29;20042;-86
2022/06/06 14:39:32;;;;;;;10.38;6.63;;;;;;;;;;4896598;29;20102;-84
2022/06/06 14:41:58;;;;;;;6.53;4.97;;;;;;;;;;4892218;29;20051;-86
2022/06/06 14:44:29;;;;;;;8.82;6.22;;;;;;;;;;4910200;29;20051;-81
2022/06/06 14:47:03;;;;;;;11.00;6.97;;;;;;;;;;4909202;29;20040;-84
2022/06/06 14:49:31;;;;;;;6.93;6.40;;;;;;;;;;4909132;29;20464;-86
2022/06/06 14:51:58;;;;;;;9.68;6.78;;;;;;;;;;4896965;29;20059;-85
2022/06/06 14:54:25;;;;;;;9.02;6.80;;;;;;;;;;4909639;29;20131;-85
2022/06/06 14:56:53;;;;;;;10.70;6.10;;;;;;;;;;4894979;29;20044;-84
2022/06/06 14:59:33;;;;;;;10.55;9.05;;;;;;;;;;4909974;29;20100;-84
2022/06/06 15:02:10;;;;;;;12.20;7.95;;;;;;;;;;4894290;29;20044;-84
2022/06/06 15:08:10;;;;;;;7.30;6.22;;;;;;;;;;4909702;29;20103;-85
2022/06/06 15:10:41;;;;;;;7.32;6.60;;;;;;;;;;4882900;29;20043;-85
2022/06/06 15:13:07;;;;;;;7.50;6.03;;;;;;;;;;4910323;29;20048;-85
2022/06/06 15:15:34;;;;;;;9.70;7.50;;;;;;;;;;4905081;29;20099;-84
2022/06/06 15:18:01;;;;;;;9.10;7.10;;;;;;;;;;4910941;29;20052;-84
2022/06/06 15:20:33;;;;;;;9.07;7.82;;;;;;;;;;4891508;29;20424;-87
2022/06/06 15:23:11;;;;;;;13.57;9.13;;;;;;;;;;4911882;29;20052;-85
2022/06/06 15:25:43;;;;;;;11.85;6.60;;;;;;;;;;4891785;29;20082;-83
2022/06/06 15:28:32;;;;;;;14.93;7.70;;;;;;;;;;4901866;29;20059;-84
2022/06/06 15:31:06;;;;;;;13.77;8.77;;;;;;;;;;4910844;29;20505;-85
2022/06/06 15:33:35;;;;;;;11.77;9.00;;;;;;;;;;4904411;29;20058;-84
2022/06/06 15:36:09;;;;;;;10.68;8.80;;;;;;;;;;4934177;29;20052;-84
2022/06/06 15:38:38;;;;;;;24.23;11.52;;;;;;;;;;4934608;29;20051;-86
2022/06/06 15:41:40;;;;;;;50.15;13.93;;;;;;;;;;4929670;29;20420;-89
2022/06/06 15:44:29;;;;;;;5.53;3.75;;;;;;;;;;4833706;29;20053;-87
2022/06/06 15:46:56;;;;;;;6.95;5.70;;;;;;;;;;4907891;29;20134;-84
2022/06/06 15:49:31;;;;;;;10.35;6.82;;;;;;;;;;4928100;29;20043;-83
2022/06/06 15:52:12;;;;;;;5.05;3.95;;;;;;;;;;4927899;29;20044;-85
2022/06/06 15:54:58;;;;;;;4.95;3.63;;;;;;;;;;4905350;29;20052;-78
2022/06/06 15:57:56;;;;;;;3.13;2.53;;;;;;;;;;4929636;29;20142;-85
2022/06/06 16:00:24;;;;;;;4.13;2.20;;;;;;;;;;4903138;29;20067;-86